Time;durP1;ratioP1;P1;durP2;ratioP2;P2;SDS_P1;SDS_P2;PMS_P1;PMS_P2;Temp;Humidity;BMP_temperature;BMP_pressure;BME280_temperature;BME280_humidity;BME280_pressure;Samples;Min_cycle;Max_cycle;Signal;HPM_P1;HPM_P2
2023/03/20 00:01:23;;;;;;;7.25;3.60;;;;;;;;;;5022630;28;20072;-79
2023/03/20 00:03:50;;;;;;;6.93;3.70;;;;;;;;;;5042761;28;20045;-80
2023/03/20 00:06:18;;;;;;;7.60;3.45;;;;;;;;;;5040299;28;20053;-79
2023/03/20 00:08:45;;;;;;;7.28;3.80;;;;;;;;;;5040357;28;20284;-79
2023/03/20 00:11:21;;;;;;;8.02;3.78;;;;;;;;;;5044360;28;20041;-80
2023/03/20 00:13:48;;;;;;;9.45;3.33;;;;;;;;;;5044006;28;20049;-80
2023/03/20 00:16:14;;;;;;;8.20;3.90;;;;;;;;;;5044912;28;20037;-78
2023/03/20 00:18:41;;;;;;;7.15;3.50;;;;;;;;;;5044485;28;20068;-80
2023/03/20 00:21:16;;;;;;;6.97;3.35;;;;;;;;;;5047507;28;20037;-80
2023/03/20 00:23:42;;;;;;;5.40;3.58;;;;;;;;;;5045713;28;20109;-80
2023/03/20 00:26:17;;;;;;;8.00;3.53;;;;;;;;;;5042956;28;20069;-79
2023/03/20 00:28:44;;;;;;;7.95;3.60;;;;;;;;;;5036762;28;20102;-79
2023/03/20 00:31:19;;;;;;;6.57;3.58;;;;;;;;;;5025151;28;20096;-79
2023/03/20 00:33:46;;;;;;;6.63;3.50;;;;;;;;;;5026278;28;20447;-78
2023/03/20 00:36:13;;;;;;;7.10;3.65;;;;;;;;;;5022650;28;20036;-79
2023/03/20 00:38:39;;;;;;;8.18;3.88;;;;;;;;;;5024386;28;20121;-78
2023/03/20 00:41:34;;;;;;;10.15;3.47;;;;;;;;;;5030893;28;20072;-80
2023/03/20 00:44:05;;;;;;;6.53;3.65;;;;;;;;;;5020715;28;20046;-80
2023/03/20 00:46:34;;;;;;;7.22;3.85;;;;;;;;;;5023264;28;20109;-81
2023/03/20 00:49:02;;;;;;;6.80;3.05;;;;;;;;;;5024127;28;20150;-80
2023/03/20 00:51:29;;;;;;;6.22;3.38;;;;;;;;;;5025507;28;20062;-80
2023/03/20 00:53:57;;;;;;;7.38;3.67;;;;;;;;;;5034432;28;20391;-79
2023/03/20 00:56:24;;;;;;;6.90;3.88;;;;;;;;;;5023286;28;20037;-78
2023/03/20 00:58:51;;;;;;;5.95;3.45;;;;;;;;;;5023277;28;20069;-78
2023/03/20 01:01:17;;;;;;;7.85;3.67;;;;;;;;;;5026319;28;20030;-79
2023/03/20 01:03:44;;;;;;;4.55;3.08;;;;;;;;;;5026815;28;20034;-79
2023/03/20 01:06:13;;;;;;;5.80;3.08;;;;;;;;;;5025841;28;20054;-79
2023/03/20 01:08:40;;;;;;;4.97;2.95;;;;;;;;;;5025877;28;20622;-79
2023/03/20 01:11:09;;;;;;;7.60;3.17;;;;;;;;;;5024598;28;20080;-78
2023/03/20 01:13:37;;;;;;;8.00;3.20;;;;;;;;;;5020996;28;20045;-79
2023/03/20 01:16:04;;;;;;;7.15;3.10;;;;;;;;;;5006817;28;20046;-79
2023/03/20 01:18:30;;;;;;;6.72;3.00;;;;;;;;;;5024085;28;20049;-80
2023/03/20 01:20:57;;;;;;;4.18;2.65;;;;;;;;;;5024804;28;20050;-79
2023/03/20 01:23:25;;;;;;;5.13;2.75;;;;;;;;;;5022672;28;20050;-78
2023/03/20 01:25:52;;;;;;;4.18;2.70;;;;;;;;;;5019860;28;20045;-79
2023/03/20 01:28:22;;;;;;;7.05;2.90;;;;;;;;;;5054915;28;20421;-79
2023/03/20 01:30:49;;;;;;;5.32;2.85;;;;;;;;;;5026351;28;20046;-78
2023/03/20 01:33:18;;;;;;;6.82;3.10;;;;;;;;;;5022630;28;20058;-81
2023/03/20 01:35:49;;;;;;;5.65;2.63;;;;;;;;;;5025982;28;20049;-79
2023/03/20 01:38:25;;;;;;;8.35;2.88;;;;;;;;;;5023648;28;20046;-78
2023/03/20 01:40:57;;;;;;;5.20;2.80;;;;;;;;;;5022679;28;20069;-79
2023/03/20 01:43:26;;;;;;;4.78;2.78;;;;;;;;;;5029615;28;20247;-79
2023/03/20 01:45:56;;;;;;;5.28;3.15;;;;;;;;;;5032070;28;20046;-78
2023/03/20 01:48:26;;;;;;;6.50;2.67;;;;;;;;;;5030985;28;20038;-79
2023/03/20 01:50:53;;;;;;;3.67;2.60;;;;;;;;;;5030068;28;20060;-79
2023/03/20 01:53:26;;;;;;;5.78;2.83;;;;;;;;;;5032376;28;20609;-78
2023/03/20 01:55:59;;;;;;;9.02;2.80;;;;;;;;;;5031472;28;20045;-80
2023/03/20 01:58:36;;;;;;;8.45;2.65;;;;;;;;;;5042431;28;20060;-79
2023/03/20 02:01:03;;;;;;;6.78;2.63;;;;;;;;;;5046392;28;20060;-80
2023/03/20 02:03:31;;;;;;;5.57;2.97;;;;;;;;;;5077375;28;20031;-79
2023/03/20 02:06:36;;;;;;;6.05;2.97;;;;;;;;;;5033360;28;20073;-80
2023/03/20 02:09:12;;;;;;;6.82;2.88;;;;;;;;;;5044168;28;20045;-81
2023/03/20 02:11:42;;;;;;;7.85;2.63;;;;;;;;;;5025099;28;20232;-78
2023/03/20 02:14:10;;;;;;;5.00;2.53;;;;;;;;;;5058082;28;20064;-78
2023/03/20 02:16:46;;;;;;;4.50;2.38;;;;;;;;;;5024284;28;20470;-80
2023/03/20 02:20:11;;;;;;;5.55;2.60;;;;;;;;;;5022058;28;20054;-79
2023/03/20 02:23:02;;;;;;;5.40;2.47;;;;;;;;;;5025329;28;20066;-78
2023/03/20 02:25:35;;;;;;;4.75;2.70;;;;;;;;;;5002576;28;20089;-80
2023/03/20 02:28:22;;;;;;;4.85;2.65;;;;;;;;;;4999085;28;20484;-78
2023/03/20 02:31:01;;;;;;;4.35;2.17;;;;;;;;;;5028117;28;20061;-78
2023/03/20 02:33:49;;;;;;;4.13;2.55;;;;;;;;;;4994846;28;20062;-79
2023/03/20 02:36:26;;;;;;;5.40;2.33;;;;;;;;;;5014860;28;20049;-79
2023/03/20 02:38:59;;;;;;;3.85;1.95;;;;;;;;;;5048645;28;20053;-78
2023/03/20 02:41:33;;;;;;;3.28;2.08;;;;;;;;;;5017898;28;20076;-82
2023/03/20 02:44:06;;;;;;;5.13;2.30;;;;;;;;;;5051021;28;20107;-78
2023/03/20 02:46:42;;;;;;;4.18;2.20;;;;;;;;;;5018026;28;20046;-79
2023/03/20 02:49:34;;;;;;;5.07;2.05;;;;;;;;;;5018448;28;20113;-78
2023/03/20 02:52:14;;;;;;;5.63;2.13;;;;;;;;;;5028924;28;20512;-78
2023/03/20 02:54:53;;;;;;;4.47;2.05;;;;;;;;;;5041511;28;20222;-78
2023/03/20 02:57:40;;;;;;;4.97;2.10;;;;;;;;;;5039570;28;20345;-78
2023/03/20 03:00:27;;;;;;;4.70;2.40;;;;;;;;;;5073350;28;20087;-79
2023/03/20 03:03:03;;;;;;;6.65;2.60;;;;;;;;;;5043703;28;20228;-79
2023/03/20 03:05:39;;;;;;;3.35;2.08;;;;;;;;;;5042979;28;20076;-79
2023/03/20 03:08:09;;;;;;;6.35;2.40;;;;;;;;;;5044630;28;20037;-79
2023/03/20 03:10:39;;;;;;;4.45;2.42;;;;;;;;;;5025004;28;20045;-79
2023/03/20 03:13:10;;;;;;;3.38;2.17;;;;;;;;;;5042636;28;20050;-78
2023/03/20 03:15:38;;;;;;;5.25;2.60;;;;;;;;;;5045361;28;20068;-78
2023/03/20 03:18:09;;;;;;;3.47;2.30;;;;;;;;;;5044088;28;20080;-79
2023/03/20 03:20:37;;;;;;;6.07;2.63;;;;;;;;;;5075232;28;20044;-79
2023/03/20 03:23:04;;;;;;;5.28;2.72;;;;;;;;;;5041456;28;20045;-79
2023/03/20 03:25:33;;;;;;;7.95;3.00;;;;;;;;;;5037580;28;20500;-79
2023/03/20 03:28:14;;;;;;;5.07;2.42;;;;;;;;;;5040476;28;20041;-79
2023/03/20 03:30:42;;;;;;;5.50;2.63;;;;;;;;;;5042913;28;20132;-79
2023/03/20 03:33:17;;;;;;;4.78;2.40;;;;;;;;;;5042877;28;20156;-79
2023/03/20 03:35:44;;;;;;;;;;;;;;;;;;5042528;28;20042;-79
2023/03/20 03:38:25;;;;;;;5.50;2.83;;;;;;;;;;5043556;28;19932;-79
2023/03/20 03:41:13;;;;;;;4.20;2.50;;;;;;;;;;5042467;28;20033;-78
2023/03/20 03:43:49;;;;;;;5.28;2.60;;;;;;;;;;5042118;28;20038;-78
2023/03/20 03:46:18;;;;;;;7.20;3.13;;;;;;;;;;5041943;28;20105;-79
2023/03/20 03:48:51;;;;;;;6.97;3.00;;;;;;;;;;5042271;28;20041;-79
2023/03/20 03:51:22;;;;;;;4.30;2.80;;;;;;;;;;5043331;28;20279;-79
2023/03/20 03:54:11;;;;;;;6.13;3.05;;;;;;;;;;5042180;28;20178;-79
2023/03/20 03:56:40;;;;;;;7.00;3.10;;;;;;;;;;5042940;28;20034;-78
2023/03/20 03:59:17;;;;;;;11.60;3.92;;;;;;;;;;5043027;28;20051;-79
2023/03/20 04:01:44;;;;;;;6.30;2.88;;;;;;;;;;5060000;28;20093;-79
2023/03/20 04:04:13;;;;;;;4.72;3.00;;;;;;;;;;5042478;28;20029;-79
2023/03/20 04:06:41;;;;;;;5.22;2.95;;;;;;;;;;5059436;28;20069;-79
2023/03/20 04:09:10;;;;;;;5.47;3.08;;;;;;;;;;5074339;28;20119;-79
2023/03/20 04:11:36;;;;;;;6.80;3.00;;;;;;;;;;5041994;28;20053;-78
2023/03/20 04:14:03;;;;;;;5.75;3.17;;;;;;;;;;5042530;28;20072;-79
2023/03/20 04:16:30;;;;;;;6.63;3.17;;;;;;;;;;5041944;28;20053;-79
2023/03/20 04:18:57;;;;;;;5.53;3.00;;;;;;;;;;5044734;28;20093;-79
2023/03/20 04:21:24;;;;;;;6.60;3.40;;;;;;;;;;5076253;28;20133;-80
2023/03/20 04:23:51;;;;;;;7.72;3.55;;;;;;;;;;5076359;28;20068;-79
2023/03/20 04:26:20;;;;;;;6.25;3.30;;;;;;;;;;5042178;28;20114;-79
2023/03/20 04:28:48;;;;;;;5.72;2.90;;;;;;;;;;5074190;28;20053;-79
2023/03/20 04:31:50;;;;;;;6.13;3.28;;;;;;;;;;5031417;28;20476;-79
2023/03/20 04:34:35;;;;;;;6.32;3.22;;;;;;;;;;5056552;28;20052;-79
2023/03/20 04:37:34;;;;;;;8.93;3.20;;;;;;;;;;5018075;28;20050;-78
2023/03/20 04:40:06;;;;;;;7.25;3.17;;;;;;;;;;5024405;28;20054;-80
2023/03/20 04:42:33;;;;;;;5.72;3.17;;;;;;;;;;5020751;28;20052;-79
2023/03/20 04:45:04;;;;;;;8.35;4.00;;;;;;;;;;5018307;28;20052;-79
2023/03/20 04:47:31;;;;;;;4.85;3.33;;;;;;;;;;5021057;28;20507;-80
2023/03/20 04:49:58;;;;;;;8.43;3.70;;;;;;;;;;5023563;28;20497;-80
2023/03/20 04:52:24;;;;;;;6.95;3.30;;;;;;;;;;5010245;28;20076;-79
2023/03/20 04:54:51;;;;;;;6.68;3.60;;;;;;;;;;5066413;28;20281;-79
2023/03/20 04:57:18;;;;;;;6.05;3.90;;;;;;;;;;5024840;28;20095;-80
2023/03/20 04:59:45;;;;;;;5.78;3.58;;;;;;;;;;5041879;28;21449;-80
2023/03/20 05:02:13;;;;;;;8.27;3.72;;;;;;;;;;5022756;28;20041;-78
2023/03/20 05:04:41;;;;;;;6.80;3.67;;;;;;;;;;5074100;28;20045;-80
2023/03/20 05:07:08;;;;;;;7.75;4.00;;;;;;;;;;5039610;28;20065;-79
2023/03/20 05:09:55;;;;;;;7.13;3.67;;;;;;;;;;5042693;28;20061;-79
2023/03/20 05:12:23;;;;;;;6.00;3.58;;;;;;;;;;5042090;28;20068;-81
2023/03/20 05:14:59;;;;;;;;;;;;;;;;;;5043293;28;20048;-79
2023/03/20 05:17:44;;;;;;;6.53;3.60;;;;;;;;;;5043537;28;19959;-80
2023/03/20 05:20:14;;;;;;;9.60;3.78;;;;;;;;;;5040102;28;20401;-78
2023/03/20 05:23:06;;;;;;;8.73;3.95;;;;;;;;;;5032284;28;20115;-79
2023/03/20 05:25:59;;;;;;;6.55;3.72;;;;;;;;;;5018444;28;20041;-79
2023/03/20 05:28:37;;;;;;;7.78;4.00;;;;;;;;;;5035596;28;20034;-79
2023/03/20 05:31:21;;;;;;;8.43;4.32;;;;;;;;;;5018338;28;20586;-80
2023/03/20 05:34:12;;;;;;;7.15;4.18;;;;;;;;;;5011371;28;20041;-80
2023/03/20 05:36:57;;;;;;;6.35;3.80;;;;;;;;;;5019307;28;20130;-80
2023/03/20 05:39:35;;;;;;;7.53;4.25;;;;;;;;;;5042270;28;20052;-80
2023/03/20 05:42:01;;;;;;;7.20;4.22;;;;;;;;;;5042387;28;20052;-80
2023/03/20 05:44:41;;;;;;;6.47;4.10;;;;;;;;;;5039041;28;20041;-80
2023/03/20 05:47:21;;;;;;;10.40;4.88;;;;;;;;;;5040034;28;20073;-81
2023/03/20 05:49:57;;;;;;;6.25;4.05;;;;;;;;;;5040235;28;20045;-79
2023/03/20 05:52:35;;;;;;;6.70;4.10;;;;;;;;;;5029981;28;20405;-80
2023/03/20 05:55:10;;;;;;;6.15;4.20;;;;;;;;;;5021889;28;20107;-79
2023/03/20 05:58:04;;;;;;;9.65;3.85;;;;;;;;;;5022321;28;20050;-80
2023/03/20 06:00:55;;;;;;;7.78;4.10;;;;;;;;;;5016940;28;20049;-80
2023/03/20 06:03:42;;;;;;;7.75;3.92;;;;;;;;;;5041586;28;20089;-80
2023/03/20 06:06:14;;;;;;;8.55;3.42;;;;;;;;;;5026411;28;20061;-81
2023/03/20 06:08:45;;;;;;;6.00;3.97;;;;;;;;;;5028029;28;20097;-81
2023/03/20 06:11:12;;;;;;;7.38;3.58;;;;;;;;;;5011138;28;20046;-80
2023/03/20 06:13:40;;;;;;;6.00;3.53;;;;;;;;;;5021451;28;20050;-80
2023/03/20 06:16:07;;;;;;;8.45;3.78;;;;;;;;;;5024985;28;20130;-81
2023/03/20 06:18:35;;;;;;;5.25;3.70;;;;;;;;;;5026437;28;20049;-81
2023/03/20 06:21:04;;;;;;;8.55;4.00;;;;;;;;;;5027823;28;20078;-81
2023/03/20 06:23:31;;;;;;;7.47;4.35;;;;;;;;;;5040732;28;20061;-81
2023/03/20 06:26:00;;;;;;;9.32;4.65;;;;;;;;;;5043218;28;20051;-78
2023/03/20 06:28:29;;;;;;;8.40;4.90;;;;;;;;;;5045103;28;20030;-81
2023/03/20 06:31:01;;;;;;;7.03;4.53;;;;;;;;;;5046757;28;20041;-80
2023/03/20 06:33:28;;;;;;;8.60;5.35;;;;;;;;;;5045368;28;20049;-80
2023/03/20 06:35:57;;;;;;;10.32;5.05;;;;;;;;;;5045331;28;20284;-79
2023/03/20 06:38:26;;;;;;;9.75;5.35;;;;;;;;;;5044520;28;20056;-80
2023/03/20 06:40:53;;;;;;;11.68;5.47;;;;;;;;;;5046646;28;20076;-79
2023/03/20 06:43:21;;;;;;;10.98;5.68;;;;;;;;;;5044233;28;20112;-80
2023/03/20 06:45:50;;;;;;;9.02;5.35;;;;;;;;;;5040051;28;20124;-80
2023/03/20 06:48:22;;;;;;;10.07;5.22;;;;;;;;;;5040356;28;20041;-79
2023/03/20 06:50:50;;;;;;;7.53;5.13;;;;;;;;;;5041489;28;20586;-79
2023/03/20 06:53:21;;;;;;;14.40;5.53;;;;;;;;;;5048998;28;20046;-80
2023/03/20 06:55:57;;;;;;;8.35;5.18;;;;;;;;;;5039445;28;20170;-79
2023/03/20 06:58:24;;;;;;;10.43;4.90;;;;;;;;;;5008970;28;20065;-81
2023/03/20 07:00:50;;;;;;;10.43;5.15;;;;;;;;;;5049235;28;20067;-81
2023/03/20 07:03:18;;;;;;;9.23;5.20;;;;;;;;;;5057000;28;20042;-79
2023/03/20 07:05:47;;;;;;;10.23;5.03;;;;;;;;;;5040158;28;20073;-80
2023/03/20 07:08:14;;;;;;;12.82;4.93;;;;;;;;;;5040688;28;20618;-79
2023/03/20 07:10:41;;;;;;;7.05;4.80;;;;;;;;;;5042189;28;20038;-80
2023/03/20 07:13:09;;;;;;;8.73;4.35;;;;;;;;;;5039773;28;20049;-81
2023/03/20 07:15:38;;;;;;;8.18;4.63;;;;;;;;;;5039447;28;20125;-78
2023/03/20 07:18:21;;;;;;;9.68;4.63;;;;;;;;;;5071180;28;20060;-79
2023/03/20 07:20:50;;;;;;;8.15;4.75;;;;;;;;;;5056062;28;20045;-79
2023/03/20 07:23:17;;;;;;;10.45;4.65;;;;;;;;;;5039515;28;20038;-79
2023/03/20 07:25:44;;;;;;;6.93;4.05;;;;;;;;;;5036827;28;20045;-79
2023/03/20 07:28:14;;;;;;;9.00;3.67;;;;;;;;;;5037781;28;20047;-79
2023/03/20 07:30:48;;;;;;;7.68;4.20;;;;;;;;;;5038636;28;20057;-79
2023/03/20 07:33:15;;;;;;;6.88;3.97;;;;;;;;;;5074044;28;20097;-79
2023/03/20 07:35:43;;;;;;;6.70;3.95;;;;;;;;;;5039015;28;20055;-79
2023/03/20 07:38:10;;;;;;;5.55;3.75;;;;;;;;;;5036942;28;20052;-79
2023/03/20 07:40:47;;;;;;;6.95;4.18;;;;;;;;;;5039747;28;20053;-78
2023/03/20 07:43:15;;;;;;;5.68;4.07;;;;;;;;;;5037703;28;20226;-79
2023/03/20 07:46:01;;;;;;;9.50;4.03;;;;;;;;;;5035184;28;20077;-80
2023/03/20 07:48:28;;;;;;;7.55;4.60;;;;;;;;;;5044484;28;20037;-80
2023/03/20 07:50:55;;;;;;;6.22;3.75;;;;;;;;;;5041361;28;20041;-79
2023/03/20 07:53:22;;;;;;;7.88;4.45;;;;;;;;;;5034215;28;20437;-79
2023/03/20 07:55:49;;;;;;;9.55;4.57;;;;;;;;;;5040888;28;20065;-81
2023/03/20 07:58:16;;;;;;;7.85;4.40;;;;;;;;;;5046928;28;20047;-80
2023/03/20 08:00:43;;;;;;;7.95;4.47;;;;;;;;;;5081819;28;20037;-80
2023/03/20 08:03:10;;;;;;;7.15;3.90;;;;;;;;;;5047263;28;20118;-79
2023/03/20 08:05:37;;;;;;;6.78;3.90;;;;;;;;;;5047428;28;20133;-80
2023/03/20 08:08:04;;;;;;;7.30;4.10;;;;;;;;;;5036410;28;20056;-79
2023/03/20 08:10:32;;;;;;;9.60;4.20;;;;;;;;;;5046438;28;20061;-80
2023/03/20 08:12:59;;;;;;;7.35;4.30;;;;;;;;;;5045053;28;20037;-80
2023/03/20 08:15:28;;;;;;;6.90;4.50;;;;;;;;;;5044217;28;20071;-80
2023/03/20 08:17:57;;;;;;;10.75;5.13;;;;;;;;;;5043317;28;20049;-79
2023/03/20 08:20:25;;;;;;;8.80;4.70;;;;;;;;;;5043923;28;20064;-80
2023/03/20 08:22:52;;;;;;;7.07;4.15;;;;;;;;;;5044677;28;20449;-80
2023/03/20 08:25:19;;;;;;;7.03;4.28;;;;;;;;;;5041694;28;20049;-80
2023/03/20 08:27:46;;;;;;;7.95;4.47;;;;;;;;;;5044605;28;20064;-80
2023/03/20 08:30:13;;;;;;;9.00;4.20;;;;;;;;;;5043039;28;20041;-81
2023/03/20 08:32:42;;;;;;;11.88;4.85;;;;;;;;;;5044535;28;20048;-81
2023/03/20 08:35:10;;;;;;;8.25;4.38;;;;;;;;;;5075602;28;20076;-80
2023/03/20 08:37:57;;;;;;;11.05;4.90;;;;;;;;;;5043873;28;20077;-81
2023/03/20 08:40:23;;;;;;;8.38;4.93;;;;;;;;;;5075417;28;20045;-81
2023/03/20 08:42:50;;;;;;;9.40;5.22;;;;;;;;;;5043092;28;20063;-79
2023/03/20 08:45:17;;;;;;;8.00;5.15;;;;;;;;;;5042104;28;20045;-79
2023/03/20 08:47:47;;;;;;;10.73;5.93;;;;;;;;;;5042287;28;20045;-81
2023/03/20 08:50:16;;;;;;;10.93;5.68;;;;;;;;;;5042202;28;20061;-81
2023/03/20 08:52:43;;;;;;;11.60;5.60;;;;;;;;;;5043398;28;20053;-81
2023/03/20 08:55:10;;;;;;;10.50;5.82;;;;;;;;;;5043383;28;20057;-81
2023/03/20 08:57:37;;;;;;;12.32;5.85;;;;;;;;;;5041527;28;20399;-80
2023/03/20 09:00:05;;;;;;;13.23;6.22;;;;;;;;;;5041110;28;20049;-80
2023/03/20 09:02:35;;;;;;;10.88;6.45;;;;;;;;;;5042023;28;20033;-81
2023/03/20 09:05:02;;;;;;;11.55;6.35;;;;;;;;;;5044888;28;20046;-80
2023/03/20 09:07:28;;;;;;;13.73;6.93;;;;;;;;;;5043909;28;20056;-81
2023/03/20 09:09:56;;;;;;;13.52;6.53;;;;;;;;;;5042865;28;20072;-80
2023/03/20 09:12:22;;;;;;;14.13;7.10;;;;;;;;;;5041777;28;20046;-79
2023/03/20 09:14:49;;;;;;;14.40;7.25;;;;;;;;;;5041282;28;20386;-79
2023/03/20 09:17:15;;;;;;;11.90;6.20;;;;;;;;;;5072503;28;20463;-79
2023/03/20 09:19:43;;;;;;;11.98;5.90;;;;;;;;;;5043631;28;20058;-79
2023/03/20 09:22:13;;;;;;;15.05;7.00;;;;;;;;;;5048664;28;20037;-78
2023/03/20 09:24:40;;;;;;;12.00;6.65;;;;;;;;;;5048764;28;20262;-79
2023/03/20 09:27:07;;;;;;;14.35;7.35;;;;;;;;;;5048869;28;20202;-79
2023/03/20 09:29:34;;;;;;;16.42;8.10;;;;;;;;;;5049145;28;20116;-78
2023/03/20 09:32:01;;;;;;;17.20;7.72;;;;;;;;;;5068496;28;20055;-79
2023/03/20 09:34:28;;;;;;;17.58;7.18;;;;;;;;;;5043634;28;20044;-78
2023/03/20 09:36:54;;;;;;;16.83;8.20;;;;;;;;;;5043134;28;20065;-79
2023/03/20 09:39:21;;;;;;;18.83;9.65;;;;;;;;;;5043385;28;20037;-79
2023/03/20 09:41:50;;;;;;;18.25;9.23;;;;;;;;;;5043697;28;20138;-79
2023/03/20 09:44:38;;;;;;;17.88;8.98;;;;;;;;;;5035265;28;20101;-79
2023/03/20 09:47:25;;;;;;;18.67;8.80;;;;;;;;;;5042043;28;20049;-80
2023/03/20 09:49:52;;;;;;;19.48;9.25;;;;;;;;;;5017379;28;20064;-79
2023/03/20 09:52:28;;;;;;;20.52;9.65;;;;;;;;;;5079585;28;20041;-78
2023/03/20 09:55:14;;;;;;;17.67;9.00;;;;;;;;;;5045069;28;20069;-79
2023/03/20 09:57:43;;;;;;;15.10;8.30;;;;;;;;;;5045383;28;20041;-80
2023/03/20 10:00:17;;;;;;;16.77;9.02;;;;;;;;;;5045140;28;20041;-78
2023/03/20 10:02:55;;;;;;;17.83;9.05;;;;;;;;;;5046380;28;20053;-79
2023/03/20 10:05:24;;;;;;;15.63;8.70;;;;;;;;;;5077817;28;20049;-80
2023/03/20 10:07:54;;;;;;;18.58;10.18;;;;;;;;;;5045835;28;20041;-80
2023/03/20 10:10:24;;;;;;;16.00;8.52;;;;;;;;;;5079253;28;20041;-80
2023/03/20 10:13:13;;;;;;;16.75;9.23;;;;;;;;;;5047168;28;20049;-82
2023/03/20 10:15:48;;;;;;;18.42;9.70;;;;;;;;;;5046989;28;20052;-79
2023/03/20 10:18:18;;;;;;;16.58;9.30;;;;;;;;;;5047295;28;20049;-81
2023/03/20 10:20:53;;;;;;;22.30;11.18;;;;;;;;;;5046509;28;20033;-79
2023/03/20 10:23:48;;;;;;;19.53;10.77;;;;;;;;;;5046679;28;20068;-79
2023/03/20 10:26:17;;;;;;;27.73;14.53;;;;;;;;;;5044203;28;20303;-79
2023/03/20 10:28:56;;;;;;;26.85;14.88;;;;;;;;;;5052433;28;20287;-79
2023/03/20 10:31:29;;;;;;;24.17;13.18;;;;;;;;;;5054016;28;20068;-80
2023/03/20 10:33:56;;;;;;;20.83;10.85;;;;;;;;;;5052852;28;20166;-80
2023/03/20 10:36:46;;;;;;;22.55;12.05;;;;;;;;;;5048876;28;20549;-79
2023/03/20 10:39:22;;;;;;;23.00;11.77;;;;;;;;;;5041700;28;20072;-80
2023/03/20 10:41:53;;;;;;;24.52;11.93;;;;;;;;;;5047723;28;20050;-80
2023/03/20 10:44:29;;;;;;;18.08;9.95;;;;;;;;;;5045640;28;20529;-80
2023/03/20 10:46:57;;;;;;;18.25;9.20;;;;;;;;;;5046228;28;20056;-80
2023/03/20 10:49:27;;;;;;;17.20;9.48;;;;;;;;;;5046571;28;20057;-80
2023/03/20 10:51:56;;;;;;;18.40;9.55;;;;;;;;;;5077397;28;20206;-79
2023/03/20 10:54:25;;;;;;;18.77;9.98;;;;;;;;;;5042883;28;20053;-81
2023/03/20 10:56:55;;;;;;;20.73;10.40;;;;;;;;;;5043047;28;20446;-80
2023/03/20 10:59:39;;;;;;;15.65;9.55;;;;;;;;;;5038542;28;20405;-81
2023/03/20 11:02:12;;;;;;;15.55;9.40;;;;;;;;;;5043966;28;20099;-80
2023/03/20 11:04:39;;;;;;;17.52;9.65;;;;;;;;;;5076680;28;20128;-80
2023/03/20 11:07:07;;;;;;;14.75;9.02;;;;;;;;;;5076078;28;20050;-80
2023/03/20 11:09:33;;;;;;;14.10;8.68;;;;;;;;;;5046714;28;20045;-80
2023/03/20 11:12:01;;;;;;;15.93;8.77;;;;;;;;;;5047449;28;20045;-80
2023/03/20 11:14:32;;;;;;;14.93;8.15;;;;;;;;;;5049830;28;20051;-79
2023/03/20 11:17:00;;;;;;;15.60;8.57;;;;;;;;;;5051697;28;20093;-79
2023/03/20 11:19:31;;;;;;;13.85;8.30;;;;;;;;;;5051650;28;20112;-79
2023/03/20 11:21:59;;;;;;;14.45;8.57;;;;;;;;;;5051305;28;20040;-80
2023/03/20 11:24:45;;;;;;;15.52;8.65;;;;;;;;;;5050861;28;20045;-80
2023/03/20 11:27:19;;;;;;;17.05;8.82;;;;;;;;;;5051305;28;20057;-80
2023/03/20 11:29:47;;;;;;;12.68;8.32;;;;;;;;;;5051245;28;20029;-80
2023/03/20 11:32:21;;;;;;;13.85;8.75;;;;;;;;;;5052198;28;20038;-80
2023/03/20 11:34:48;;;;;;;15.90;9.05;;;;;;;;;;5050981;28;20124;-79
2023/03/20 11:37:25;;;;;;;13.95;8.18;;;;;;;;;;5045895;28;20056;-80
2023/03/20 11:39:59;;;;;;;13.05;8.40;;;;;;;;;;5051449;28;20076;-80
2023/03/20 11:42:27;;;;;;;16.88;8.70;;;;;;;;;;5051614;28;20049;-80
2023/03/20 11:44:58;;;;;;;14.15;8.35;;;;;;;;;;5049116;28;20098;-79
2023/03/20 11:47:26;;;;;;;16.58;8.68;;;;;;;;;;5048689;28;20182;-79
2023/03/20 11:50:00;;;;;;;13.40;8.35;;;;;;;;;;5048599;28;20041;-81
2023/03/20 11:52:32;;;;;;;10.35;7.00;;;;;;;;;;5049727;28;20048;-79
2023/03/20 11:55:00;;;;;;;12.77;7.60;;;;;;;;;;5049355;28;20083;-79
2023/03/20 11:57:37;;;;;;;14.25;7.60;;;;;;;;;;5049114;28;20036;-79
2023/03/20 12:00:04;;;;;;;10.85;6.72;;;;;;;;;;5028450;28;20029;-80
2023/03/20 12:02:34;;;;;;;12.43;7.50;;;;;;;;;;5028755;28;20129;-79
2023/03/20 12:05:01;;;;;;;14.82;7.65;;;;;;;;;;5028196;28;20113;-79
2023/03/20 12:07:35;;;;;;;14.50;8.10;;;;;;;;;;5058719;28;20046;-79
2023/03/20 12:10:05;;;;;;;14.23;8.32;;;;;;;;;;5021818;28;20050;-79
2023/03/20 12:12:41;;;;;;;17.30;8.45;;;;;;;;;;5013660;28;20508;-78
2023/03/20 12:15:08;;;;;;;;;;;;;;;;;;5012644;28;20069;-78
2023/03/20 12:17:53;;;;;;;16.02;7.70;;;;;;;;;;5007593;28;20135;-78
2023/03/20 12:20:23;;;;;;;15.85;7.32;;;;;;;;;;5024404;28;20119;-77
2023/03/20 12:22:55;;;;;;;10.95;6.13;;;;;;;;;;5019071;28;20049;-78
2023/03/20 12:25:27;;;;;;;10.20;5.20;;;;;;;;;;5025085;28;20502;-78
2023/03/20 12:28:16;;;;;;;7.97;3.25;;;;;;;;;;5023903;28;20041;-78
2023/03/20 12:30:50;;;;;;;7.47;2.70;;;;;;;;;;5015349;28;20516;-79
2023/03/20 12:33:37;;;;;;;4.50;1.98;;;;;;;;;;5026104;28;20052;-78
2023/03/20 12:36:07;;;;;;;6.43;2.25;;;;;;;;;;5026257;28;20064;-77
2023/03/20 12:38:34;;;;;;;6.00;3.08;;;;;;;;;;5026963;28;20045;-79
2023/03/20 12:41:10;;;;;;;6.53;3.88;;;;;;;;;;5027882;28;20497;-79
2023/03/20 12:43:52;;;;;;;9.68;4.70;;;;;;;;;;5028578;28;20041;-78
2023/03/20 12:46:42;;;;;;;12.13;6.93;;;;;;;;;;5029349;28;20041;-79
2023/03/20 12:49:09;;;;;;;16.98;8.57;;;;;;;;;;5030372;28;20208;-80
2023/03/20 12:51:41;;;;;;;12.70;7.72;;;;;;;;;;5029035;28;20073;-78
2023/03/20 12:54:31;;;;;;;12.18;6.22;;;;;;;;;;5028745;28;20052;-79
2023/03/20 12:57:03;;;;;;;8.75;5.30;;;;;;;;;;5029483;28;20137;-78
2023/03/20 12:59:47;;;;;;;8.50;4.70;;;;;;;;;;5029177;28;20226;-78
2023/03/20 13:02:26;;;;;;;8.70;4.57;;;;;;;;;;5028095;28;20493;-78
2023/03/20 13:04:59;;;;;;;9.95;4.60;;;;;;;;;;5048833;28;20045;-79
2023/03/20 13:07:32;;;;;;;7.80;4.82;;;;;;;;;;5027212;28;20482;-79
2023/03/20 13:10:07;;;;;;;6.55;4.40;;;;;;;;;;5028081;28;20068;-79
2023/03/20 13:12:34;;;;;;;8.47;4.83;;;;;;;;;;5029817;28;20048;-78
2023/03/20 13:15:00;;;;;;;7.30;4.95;;;;;;;;;;5029160;28;20107;-78
2023/03/20 13:17:27;;;;;;;7.80;5.10;;;;;;;;;;5028634;28;20065;-78
2023/03/20 13:20:00;;;;;;;9.43;5.40;;;;;;;;;;5028440;28;20060;-78
2023/03/20 13:22:50;;;;;;;12.48;5.03;;;;;;;;;;5030298;28;20049;-77
2023/03/20 13:25:20;;;;;;;8.63;5.03;;;;;;;;;;5034660;28;20095;-79
2023/03/20 13:27:52;;;;;;;7.05;4.65;;;;;;;;;;5035323;28;20069;-79
2023/03/20 13:30:22;;;;;;;8.23;4.95;;;;;;;;;;5020104;28;20060;-79
2023/03/20 13:33:07;;;;;;;9.52;4.82;;;;;;;;;;5019001;28;20053;-78
2023/03/20 13:35:42;;;;;;;7.18;4.57;;;;;;;;;;5017598;28;20042;-78
2023/03/20 13:38:21;;;;;;;8.02;5.05;;;;;;;;;;5015310;28;20108;-78
2023/03/20 13:40:51;;;;;;;9.00;4.57;;;;;;;;;;5018442;28;20054;-79
2023/03/20 13:43:27;;;;;;;3.42;2.40;;;;;;;;;;5016491;28;20457;-79
2023/03/20 13:46:09;;;;;;;3.35;2.38;;;;;;;;;;5045702;28;20045;-81
2023/03/20 13:48:37;;;;;;;5.07;3.33;;;;;;;;;;5042253;28;20128;-78
2023/03/20 13:51:22;;;;;;;3.80;2.47;;;;;;;;;;5046538;28;20541;-79
2023/03/20 13:54:09;;;;;;;5.65;2.22;;;;;;;;;;5047910;28;20045;-80
2023/03/20 13:56:46;;;;;;;4.13;2.20;;;;;;;;;;5030672;28;20536;-80
2023/03/20 13:59:13;;;;;;;3.17;2.10;;;;;;;;;;5012704;28;20088;-78
2023/03/20 14:01:57;;;;;;;6.32;2.75;;;;;;;;;;5010859;28;20506;-78
2023/03/20 14:04:25;;;;;;;5.32;2.92;;;;;;;;;;5013620;28;20034;-79
2023/03/20 14:06:53;;;;;;;7.55;3.78;;;;;;;;;;5012171;28;20064;-79
2023/03/20 14:09:31;;;;;;;8.95;4.50;;;;;;;;;;5012573;28;20081;-79
2023/03/20 14:12:02;;;;;;;8.27;4.03;;;;;;;;;;5012509;28;20069;-78
2023/03/20 14:14:30;;;;;;;7.80;4.50;;;;;;;;;;5010161;28;20042;-79
2023/03/20 14:17:17;;;;;;;7.57;4.25;;;;;;;;;;5010508;28;20502;-78
2023/03/20 14:19:46;;;;;;;11.45;4.20;;;;;;;;;;5012549;28;20508;-78
2023/03/20 14:22:14;;;;;;;7.78;4.18;;;;;;;;;;5013863;28;20406;-79
2023/03/20 14:24:45;;;;;;;5.45;3.40;;;;;;;;;;5044095;28;20136;-78
2023/03/20 14:27:16;;;;;;;6.50;3.45;;;;;;;;;;5011861;28;20066;-79
2023/03/20 14:29:44;;;;;;;8.45;4.22;;;;;;;;;;5011390;28;21057;-78
2023/03/20 14:32:13;;;;;;;7.68;3.70;;;;;;;;;;5013752;28;20050;-78
2023/03/20 14:34:47;;;;;;;7.25;4.05;;;;;;;;;;5017508;28;20118;-80
2023/03/20 14:37:29;;;;;;;6.75;3.80;;;;;;;;;;5033605;28;20049;-79
2023/03/20 14:40:00;;;;;;;6.70;4.13;;;;;;;;;;5026652;28;20060;-79
2023/03/20 14:42:38;;;;;;;8.68;4.47;;;;;;;;;;5031423;28;20044;-79
2023/03/20 14:45:33;;;;;;;8.25;4.90;;;;;;;;;;5028049;28;20060;-77
2023/03/20 14:48:03;;;;;;;7.15;4.35;;;;;;;;;;5019601;28;20052;-77
2023/03/20 14:50:36;;;;;;;9.95;5.00;;;;;;;;;;5027215;28;20057;-79
2023/03/20 14:53:09;;;;;;;8.82;4.75;;;;;;;;;;5028574;28;20462;-78
2023/03/20 14:55:48;;;;;;;9.48;4.90;;;;;;;;;;5021697;28;20041;-79
2023/03/20 14:58:33;;;;;;;13.02;5.25;;;;;;;;;;5019190;28;20362;-78
2023/03/20 15:01:01;;;;;;;;;;;;;;;;;;5028124;28;20490;-77
2023/03/20 15:03:28;;;;;;;9.35;4.60;;;;;;;;;;5024594;28;19977;-78
2023/03/20 15:05:56;;;;;;;9.70;5.10;;;;;;;;;;5028091;28;20045;-79
2023/03/20 15:08:26;;;;;;;10.38;5.95;;;;;;;;;;5024372;28;20041;-78
2023/03/20 15:10:55;;;;;;;9.85;6.28;;;;;;;;;;5025705;28;20398;-78
2023/03/20 15:13:23;;;;;;;8.60;5.43;;;;;;;;;;5027348;28;20049;-78